Crew | Aerofun Virtual



 METAR AND TAF INFORMATION
METAR FOR BIKF
ADDS - METARS form results

(1541 UTC 24 May 2019)
Data provider http://aviationweather.gov/metar/data/
 
METAR text: BIKF 241530Z 06002KT 9999 FEW024 11/05 Q1019
Conditions at: BIKF (KEFLAVIK (CIV/MI, IS) observed 1530 UTC 24 May 2019
Temperature: 11.0°C (52°F)
Dewpoint: 5.0°C (41°F) [RH = 66%]
Pressure (altimeter): 30.09 inches Hg (1019.0 mb)
Winds: from the ENE (60 degrees) at 2 MPH (2 knots; 1.0 m/s)
Visibility: 6 or more miles (10+ km)
Ceiling: at least 12,000 feet AGL
Clouds: few clouds at 2400 feet AGL
Weather: no significant weather observed at this time

METAR text: BIKF 241500Z VRB03KT 9999 SCT018 10/05 Q1019
Conditions at: BIKF (KEFLAVIK (CIV/MI, IS) observed 1500 UTC 24 May 2019
Temperature: 10.0°C (50°F)
Dewpoint: 5.0°C (41°F) [RH = 71%]
Pressure (altimeter): 30.09 inches Hg (1019.0 mb)
Winds: variable direction winds at 3 MPH (3 knots; 1.5 m/s)
Visibility: 6 or more miles (10+ km)
Ceiling: at least 12,000 feet AGL
Clouds: scattered clouds at 1800 feet AGL
Weather: no significant weather observed at this time

Forecast for: BIKF (KEFLAVIK (CIV/MI, IS)
Text: TAF BIKF 241309Z 2415/2515 28008KT 9999 SCT020 TX12/2415Z TN05/2503Z
Forecast period: 1500 UTC 24 May 2019 to 1500 UTC 25 May 2019
Forecast type: FROM: standard forecast or significant change
Winds: from the W (280 degrees) at 9 MPH (8 knots; 4.1 m/s)
Visibility: 6 or more miles 10+ km)
Ceiling: at least 12,000 feet AGL
Clouds: scattered clouds at 2000 feet AGL
Weather: no significant weather forecast for this period
Text: TEMPO 2501/2508 BKN012
Forecast period: 0100 to 0800 UTC 25 May 2019
Forecast type: TEMPORARY: The following changes expected for less than half the time period
Visibility: missing
Ceiling: 1200 feet AGL
Clouds: broken clouds at 1200 feet AGL
Weather: no significant weather forecast for this period

 AIRPORT MAP

 RUNWAY INFORMATION
Runway 02 Runway length 10019 ft Runway width 197 ft
Runway elevation 137 ft Runway displaced threshold 19 ft Runway heading 360
Runway 20 Runway length 10019 ft Runway width 197 ft
Runway elevation 163 ft Runway displaced threshold 19 ft Runway heading 180
Runway 11 Runway length 10056 ft Runway width 197 ft
Runway elevation 111 ft Runway displaced threshold 43 ft Runway heading 90
Runway 29 Runway length 10056 ft Runway width 197 ft
Runway elevation 171 ft Runway displaced threshold 43 ft Runway heading 270

 AIRPORT FREQUENCIES
Type A/G Name AIR GND Frequency 131.9 MHZ
Type APP Name APP Frequency 119.3 MHZ
Type ATIS Name ATIS Frequency 128.3 MHZ
Type DEP Name DEP Frequency 119.3 MHZ
Type GND Name GND Frequency 121.9 MHZ
Type OPS Name BASE OPS Frequency 129 MHZ
Type PMSV Name PMSV METR Frequency 125 MHZ
Type TWR Name TWR Frequency 118.3 MHZ

 AIRPORT NEAR NAVIGATION AIDS
Type VORTAC Name Keflavik Frequency 112000 KHZ
Type NDB Name Keflavik Frequency 392 KHZ
Type NDB Name Oscar Kilo Frequency 364 KHZ